createdAt,value
2022-12-29T00:02:25.629Z,100.00
2022-12-29T00:04:52.875Z,100.00
2022-12-29T00:07:20.161Z,99.86
2022-12-29T00:09:47.367Z,99.25
2022-12-29T00:12:14.609Z,99.05
2022-12-29T00:15:00.256Z,98.31
2022-12-29T00:17:27.441Z,97.66
2022-12-29T00:20:13.137Z,98.25
2022-12-29T00:22:59.481Z,97.85
2022-12-29T00:25:45.064Z,97.66
2022-12-29T00:28:30.971Z,97.80
2022-12-29T00:31:20.191Z,97.73
2022-12-29T00:34:05.927Z,97.12
2022-12-29T00:36:38.300Z,97.57
2022-12-29T00:39:28.689Z,97.12
2022-12-29T00:42:14.636Z,97.76
2022-12-29T00:44:41.831Z,97.53
2022-12-29T00:47:09.088Z,97.72
2022-12-29T00:49:36.268Z,97.29
2022-12-29T00:52:09.378Z,97.97
2022-12-29T00:54:38.627Z,98.50
2022-12-29T00:57:06.534Z,98.27
2022-12-29T00:59:36.499Z,99.26
2022-12-29T01:02:04.113Z,98.50
2022-12-29T01:04:31.448Z,98.25
2022-12-29T01:06:58.609Z,98.42
2022-12-29T01:09:44.270Z,98.45
2022-12-29T01:12:11.785Z,98.31
2022-12-29T01:14:39.433Z,97.62
2022-12-29T01:17:06.930Z,97.35
2022-12-29T01:19:34.609Z,96.28
2022-12-29T01:22:01.927Z,96.87
2022-12-29T01:24:29.213Z,97.41
2022-12-29T01:26:56.454Z,98.08
2022-12-29T01:29:24.132Z,97.98
2022-12-29T01:31:51.399Z,98.28
2022-12-29T01:34:18.954Z,99.09
2022-12-29T01:36:46.190Z,99.69
2022-12-29T01:39:13.352Z,99.82
2022-12-29T01:41:42.121Z,100.00
2022-12-29T01:44:48.375Z,100.00
2022-12-29T01:47:27.417Z,99.72
2022-12-29T01:49:56.994Z,99.28
2022-12-29T01:52:25.372Z,98.73
2022-12-29T01:54:54.541Z,99.20
2022-12-29T01:57:27.211Z,98.79
2022-12-29T02:00:10.356Z,99.26
2022-12-29T02:02:37.717Z,98.81
2022-12-29T02:05:12.906Z,97.42
2022-12-29T02:07:41.369Z,97.54
2022-12-29T02:10:08.771Z,97.14
2022-12-29T02:12:35.948Z,97.23
2022-12-29T02:15:03.708Z,96.89
2022-12-29T02:17:50.335Z,96.01
2022-12-29T02:20:39.198Z,95.51
2022-12-29T02:23:45.378Z,94.98
2022-12-29T02:26:24.427Z,94.23
2022-12-29T02:29:17.890Z,93.20
2022-12-29T02:32:07.534Z,92.81
2022-12-29T02:34:42.881Z,92.13
2022-12-29T02:37:45.415Z,92.29
2022-12-29T02:40:31.039Z,91.83
2022-12-29T02:43:35.501Z,91.40
2022-12-29T02:46:19.618Z,90.81
2022-12-29T02:48:57.857Z,91.09
2022-12-29T02:51:46.630Z,90.80
2022-12-29T02:54:32.314Z,90.39
2022-12-29T02:56:59.477Z,90.86
2022-12-29T02:59:26.679Z,90.33
2022-12-29T03:02:21.508Z,89.83
2022-12-29T03:05:09.313Z,90.45
2022-12-29T03:07:57.326Z,90.61
2022-12-29T03:11:01.373Z,90.13
2022-12-29T03:13:55.890Z,89.45
2022-12-29T03:16:43.887Z,89.72
2022-12-29T03:19:20.489Z,89.05
2022-12-29T03:22:09.860Z,89.01
2022-12-29T03:24:41.888Z,89.79
2022-12-29T03:27:12.137Z,90.19
2022-12-29T03:29:43.965Z,90.02
2022-12-29T03:32:13.931Z,89.27
2022-12-29T03:34:41.650Z,88.25
2022-12-29T03:37:13.931Z,89.86
2022-12-29T03:39:41.538Z,88.75
2022-12-29T03:42:14.250Z,89.44
2022-12-29T03:44:44.183Z,90.31
2022-12-29T03:47:12.812Z,90.20
2022-12-29T03:49:39.999Z,89.07
2022-12-29T03:52:07.469Z,89.38
2022-12-29T03:54:34.732Z,89.42
2022-12-29T03:57:01.960Z,88.72
2022-12-29T03:59:29.113Z,89.98
2022-12-29T04:01:56.350Z,90.23
2022-12-29T04:04:23.819Z,89.01
2022-12-29T04:06:50.969Z,90.19
2022-12-29T04:09:18.141Z,90.23
2022-12-29T04:11:45.375Z,89.97
2022-12-29T04:14:12.575Z,90.69
2022-12-29T04:16:39.967Z,89.64
2022-12-29T04:19:08.425Z,89.44
2022-12-29T04:21:35.713Z,89.60
2022-12-29T04:24:02.987Z,90.52
2022-12-29T04:26:30.221Z,89.65
2022-12-29T04:28:57.380Z,90.04
2022-12-29T04:31:24.648Z,89.93
2022-12-29T04:33:51.870Z,90.24
2022-12-29T04:36:19.018Z,90.73
2022-12-29T04:38:46.242Z,90.72
2022-12-29T04:41:13.454Z,89.79
2022-12-29T04:43:40.619Z,90.15
2022-12-29T04:46:07.839Z,90.76
2022-12-29T04:48:35.071Z,89.18
2022-12-29T04:51:02.258Z,88.84
2022-12-29T04:53:29.449Z,88.91
2022-12-29T04:55:56.677Z,89.15
2022-12-29T04:58:23.917Z,89.10
2022-12-29T05:00:52.556Z,89.94
2022-12-29T05:03:19.916Z,89.94
2022-12-29T05:05:47.166Z,90.14
2022-12-29T05:08:14.334Z,90.41
2022-12-29T05:10:41.827Z,90.51
2022-12-29T05:13:09.038Z,90.03
2022-12-29T05:15:36.266Z,89.59
2022-12-29T05:18:03.513Z,89.39
2022-12-29T05:20:30.658Z,89.72
2022-12-29T05:22:57.861Z,89.18
2022-12-29T05:25:25.050Z,90.29
2022-12-29T05:27:52.219Z,90.31
2022-12-29T05:30:19.378Z,89.37
2022-12-29T05:32:46.563Z,89.61
2022-12-29T05:35:13.855Z,89.56
2022-12-29T05:37:41.778Z,89.24
2022-12-29T05:40:09.516Z,89.70
2022-12-29T05:42:36.686Z,88.98
2022-12-29T05:45:04.192Z,89.24
2022-12-29T05:47:31.364Z,87.79
2022-12-29T05:49:58.519Z,88.33
2022-12-29T05:52:25.666Z,88.93
2022-12-29T05:54:52.955Z,89.19
2022-12-29T05:57:20.154Z,88.59
2022-12-29T05:59:47.346Z,88.86
2022-12-29T06:02:14.743Z,89.86
2022-12-29T06:04:42.033Z,89.65
2022-12-29T06:07:09.178Z,89.14
2022-12-29T06:09:36.347Z,88.87
2022-12-29T06:12:03.506Z,89.49
2022-12-29T06:14:30.701Z,89.71
2022-12-29T06:16:57.900Z,89.45
2022-12-29T06:19:25.074Z,89.79
2022-12-29T06:21:53.540Z,89.79
2022-12-29T06:24:20.761Z,89.31
2022-12-29T06:26:47.931Z,90.29
2022-12-29T06:29:18.041Z,90.12
2022-12-29T06:31:49.706Z,89.68
2022-12-29T06:34:17.162Z,90.43
2022-12-29T06:36:44.511Z,89.36
2022-12-29T06:39:12.239Z,90.05
2022-12-29T06:41:39.415Z,90.91
2022-12-29T06:44:06.616Z,90.02
2022-12-29T06:46:33.930Z,90.67
2022-12-29T06:49:01.191Z,89.82
2022-12-29T06:51:28.345Z,90.40
2022-12-29T06:53:55.598Z,90.23
2022-12-29T06:56:22.840Z,90.97
2022-12-29T06:58:50.113Z,90.70
2022-12-29T07:01:17.416Z,91.06
2022-12-29T07:03:44.705Z,92.20
2022-12-29T07:06:12.136Z,92.65
2022-12-29T07:08:39.550Z,91.90
2022-12-29T07:11:07.219Z,91.91
2022-12-29T07:13:34.416Z,92.42
2022-12-29T07:16:05.725Z,91.82
2022-12-29T07:18:32.902Z,90.90
2022-12-29T07:21:00.106Z,92.30
2022-12-29T07:23:27.376Z,92.50
2022-12-29T07:26:05.515Z,92.61
2022-12-29T07:28:33.236Z,92.81
2022-12-29T07:31:00.980Z,93.49
2022-12-29T07:33:30.513Z,92.57
2022-12-29T07:35:58.162Z,92.06
2022-12-29T07:38:25.405Z,92.68
2022-12-29T07:40:52.808Z,92.30
2022-12-29T07:43:19.977Z,92.59
2022-12-29T07:45:47.220Z,93.62
2022-12-29T07:48:14.403Z,92.40
2022-12-29T07:50:41.607Z,92.63
2022-12-29T07:53:09.173Z,92.01
2022-12-29T07:55:36.522Z,91.75
2022-12-29T07:58:03.742Z,91.68
2022-12-29T08:00:31.077Z,91.89
2022-12-29T08:02:58.262Z,91.38
2022-12-29T08:05:25.444Z,91.50
2022-12-29T08:07:52.870Z,91.76
2022-12-29T08:10:20.103Z,91.31
2022-12-29T08:12:47.268Z,91.01
2022-12-29T08:15:14.456Z,89.57
2022-12-29T08:17:41.701Z,90.67
2022-12-29T08:20:09.479Z,90.82
2022-12-29T08:22:36.784Z,91.75
2022-12-29T08:25:04.587Z,91.39
2022-12-29T08:27:31.758Z,92.70
2022-12-29T08:30:00.937Z,91.41
2022-12-29T08:32:29.344Z,91.46
2022-12-29T08:34:56.617Z,91.02
2022-12-29T08:37:29.050Z,92.32
2022-12-29T08:39:59.640Z,92.92
2022-12-29T08:42:31.790Z,92.12
2022-12-29T08:44:59.821Z,91.31
2022-12-29T08:47:27.197Z,91.74
2022-12-29T08:49:54.568Z,91.25
2022-12-29T08:52:21.866Z,90.88
2022-12-29T08:54:49.046Z,90.20
2022-12-29T08:57:16.222Z,89.83
2022-12-29T08:59:43.592Z,89.75
2022-12-29T09:02:17.504Z,89.25
2022-12-29T09:04:47.673Z,89.23
2022-12-29T09:07:14.921Z,90.74
2022-12-29T09:09:42.121Z,90.16
2022-12-29T09:12:09.549Z,90.62
2022-12-29T09:14:36.747Z,91.45
2022-12-29T09:17:22.448Z,90.63
2022-12-29T09:19:49.621Z,89.53
2022-12-29T09:22:16.798Z,89.58
2022-12-29T09:24:44.019Z,89.02
2022-12-29T09:27:11.180Z,88.96
2022-12-29T09:29:38.371Z,89.48
2022-12-29T09:32:07.771Z,88.10
2022-12-29T09:34:35.400Z,89.30
2022-12-29T09:37:02.575Z,89.31
2022-12-29T09:39:29.760Z,87.97
2022-12-29T09:42:21.029Z,88.05
2022-12-29T09:45:09.845Z,87.53
2022-12-29T09:47:37.196Z,88.22
2022-12-29T09:50:25.935Z,85.86
2022-12-29T09:53:09.220Z,87.20
2022-12-29T09:55:37.613Z,85.46
2022-12-29T09:58:31.095Z,84.91
2022-12-29T10:01:06.129Z,84.49
2022-12-29T10:03:49.846Z,84.83
2022-12-29T10:06:27.964Z,83.12
2022-12-29T10:08:59.592Z,83.75
2022-12-29T10:11:50.490Z,83.16
2022-12-29T10:14:33.834Z,83.99
2022-12-29T10:17:26.448Z,84.02
2022-12-29T10:20:15.833Z,83.19
2022-12-29T10:23:09.278Z,83.33
2022-12-29T10:25:39.835Z,81.74
2022-12-29T10:28:18.797Z,82.18
2022-12-29T10:30:48.483Z,82.05
2022-12-29T10:33:20.304Z,81.22
2022-12-29T10:35:49.324Z,82.11
2022-12-29T10:38:43.510Z,82.33
2022-12-29T10:41:18.192Z,81.94
2022-12-29T10:43:54.175Z,82.74
2022-12-29T10:46:30.402Z,83.83
2022-12-29T10:48:57.655Z,82.65
2022-12-29T10:51:34.923Z,81.79
2022-12-29T10:54:17.634Z,82.82
2022-12-29T10:56:53.115Z,83.28
2022-12-29T10:59:25.672Z,81.14
2022-12-29T11:02:05.895Z,81.34
2022-12-29T11:04:50.155Z,82.64
2022-12-29T11:07:25.090Z,83.55
2022-12-29T11:09:54.551Z,85.23
2022-12-29T11:12:29.829Z,86.10
2022-12-29T11:15:08.804Z,86.24
2022-12-29T11:17:53.211Z,86.24
2022-12-29T11:20:31.043Z,88.24
2022-12-29T11:22:58.787Z,90.54
2022-12-29T11:25:26.057Z,90.75
2022-12-29T11:28:03.297Z,92.33
2022-12-29T11:30:32.527Z,93.99
2022-12-29T11:32:59.682Z,94.34
2022-12-29T11:35:42.316Z,93.89
2022-12-29T11:38:24.859Z,93.98
2022-12-29T11:40:52.282Z,95.55
2022-12-29T11:43:34.399Z,96.79
2022-12-29T11:46:04.536Z,97.91
2022-12-29T11:48:41.413Z,99.80
2022-12-29T11:51:09.126Z,100.00
2022-12-29T11:53:48.619Z,100.00
2022-12-29T11:56:17.888Z,100.00
2022-12-29T11:58:45.026Z,100.00
2022-12-29T12:01:18.239Z,100.00
2022-12-29T12:04:02.591Z,100.00
2022-12-29T12:06:32.100Z,100.00
2022-12-29T12:09:09.474Z,100.00
2022-12-29T12:11:39.032Z,100.00
2022-12-29T12:14:27.837Z,100.00
2022-12-29T12:16:58.261Z,100.00
2022-12-29T12:19:48.412Z,100.00
2022-12-29T12:22:32.381Z,100.00
2022-12-29T12:25:30.604Z,100.00
2022-12-29T12:28:01.907Z,100.00
2022-12-29T12:30:31.615Z,100.00
2022-12-29T12:33:19.332Z,100.00
2022-12-29T12:36:07.594Z,100.00
2022-12-29T12:39:03.799Z,100.00
2022-12-29T12:41:46.107Z,100.00
2022-12-29T12:44:27.567Z,100.00
2022-12-29T12:46:54.879Z,100.00
2022-12-29T12:49:51.148Z,100.00
2022-12-29T12:52:44.526Z,100.00
2022-12-29T12:55:36.622Z,100.00
2022-12-29T12:58:11.840Z,100.00
2022-12-29T13:00:53.323Z,100.00
2022-12-29T13:03:36.917Z,100.00
2022-12-29T13:06:38.493Z,100.00
2022-12-29T13:09:27.713Z,100.00
2022-12-29T13:12:09.823Z,100.00
2022-12-29T13:14:57.018Z,100.00
2022-12-29T13:17:53.486Z,100.00
2022-12-29T13:20:32.132Z,100.00
2022-12-29T13:23:32.364Z,100.00
2022-12-29T13:26:16.029Z,100.00
2022-12-29T13:29:19.712Z,100.00
2022-12-29T13:31:57.417Z,100.00
2022-12-29T13:34:56.163Z,100.00
2022-12-29T13:37:27.327Z,100.00
2022-12-29T13:40:01.678Z,100.00
2022-12-29T13:42:29.678Z,100.00
2022-12-29T13:45:02.034Z,100.00
2022-12-29T13:47:40.435Z,100.00
2022-12-29T13:50:16.974Z,100.00
2022-12-29T13:52:50.668Z,100.00
2022-12-29T13:55:37.506Z,100.00
2022-12-29T13:58:19.593Z,100.00
2022-12-29T14:00:58.613Z,100.00
2022-12-29T14:03:45.798Z,100.00
2022-12-29T14:06:18.597Z,100.00
2022-12-29T14:08:46.297Z,100.00
2022-12-29T14:11:16.209Z,100.00
2022-12-29T14:13:45.927Z,100.00
2022-12-29T14:16:33.933Z,100.00
2022-12-29T14:19:19.066Z,100.00
2022-12-29T14:22:12.850Z,100.00
2022-12-29T14:24:42.856Z,100.00
2022-12-29T14:27:15.680Z,100.00
2022-12-29T14:29:42.755Z,100.00
2022-12-29T14:32:27.904Z,100.00
2022-12-29T14:34:56.373Z,100.00
2022-12-29T14:37:34.397Z,100.00
2022-12-29T14:40:07.791Z,100.00
2022-12-29T14:42:35.605Z,100.00
2022-12-29T14:45:14.839Z,100.00
2022-12-29T14:47:45.737Z,100.00
2022-12-29T14:50:17.313Z,100.00
2022-12-29T14:53:00.038Z,100.00
2022-12-29T14:55:44.294Z,100.00
2022-12-29T14:58:17.665Z,100.00
2022-12-29T15:00:46.324Z,100.00
2022-12-29T15:03:23.980Z,100.00
2022-12-29T15:06:12.094Z,100.00
2022-12-29T15:08:53.319Z,100.00
2022-12-29T15:11:26.004Z,100.00
2022-12-29T15:13:53.809Z,100.00
2022-12-29T15:16:30.529Z,100.00
2022-12-29T15:18:58.099Z,100.00
2022-12-29T15:21:33.204Z,100.00
2022-12-29T15:24:00.632Z,100.00
2022-12-29T15:26:39.390Z,100.00
2022-12-29T15:29:06.582Z,100.00
2022-12-29T15:31:33.776Z,100.00
2022-12-29T15:34:12.007Z,100.00
2022-12-29T15:36:41.054Z,100.00
2022-12-29T15:39:21.935Z,100.00
2022-12-29T15:42:00.567Z,100.00
2022-12-29T15:44:46.009Z,100.00
2022-12-29T15:47:19.491Z,100.00
2022-12-29T15:49:50.441Z,100.00
2022-12-29T15:52:20.464Z,100.00
2022-12-29T15:54:52.837Z,100.00
2022-12-29T15:57:25.807Z,99.23
2022-12-29T15:59:54.769Z,99.29
2022-12-29T16:02:24.072Z,99.62
2022-12-29T16:07:41.947Z,99.09
2022-12-29T16:10:31.320Z,98.17
2022-12-29T16:13:11.554Z,96.87
2022-12-29T16:15:38.756Z,95.53
2022-12-29T16:18:06.341Z,95.74
2022-12-29T16:20:41.293Z,95.54
2022-12-29T16:23:19.200Z,94.24
2022-12-29T16:25:46.722Z,93.92
2022-12-29T16:28:36.302Z,93.66
2022-12-29T16:31:08.033Z,92.85
2022-12-29T16:33:44.270Z,91.76
2022-12-29T16:36:31.369Z,92.26
2022-12-29T16:39:23.025Z,90.18
2022-12-29T16:41:51.210Z,90.36
2022-12-29T16:44:27.503Z,90.68
2022-12-29T16:47:13.096Z,90.87
2022-12-29T16:49:43.296Z,89.66
2022-12-29T16:52:24.138Z,89.93
2022-12-29T16:54:56.723Z,91.06
2022-12-29T16:57:32.977Z,90.70
2022-12-29T17:00:03.777Z,90.89
2022-12-29T17:02:32.630Z,89.94
2022-12-29T17:04:59.951Z,88.50
2022-12-29T17:07:29.111Z,88.19
2022-12-29T17:09:56.349Z,90.01
2022-12-29T17:12:28.858Z,88.82
2022-12-29T17:15:03.183Z,89.09
2022-12-29T17:17:42.593Z,86.94
2022-12-29T17:20:19.018Z,88.10
2022-12-29T17:22:46.559Z,89.65
2022-12-29T17:25:19.133Z,90.14
2022-12-29T17:27:58.845Z,91.45
2022-12-29T17:30:32.926Z,90.27
2022-12-29T17:33:03.321Z,89.22
2022-12-29T17:35:30.673Z,89.78
2022-12-29T17:37:58.053Z,89.58
2022-12-29T17:40:29.409Z,90.28
2022-12-29T17:42:58.326Z,90.62
2022-12-29T17:45:27.602Z,91.29
2022-12-29T17:47:55.095Z,91.69
2022-12-29T17:50:26.793Z,92.51
2022-12-29T17:53:01.095Z,93.07
2022-12-29T17:55:36.673Z,91.66
2022-12-29T17:58:19.051Z,91.96
2022-12-29T18:00:47.754Z,91.63
2022-12-29T18:03:17.003Z,91.12
2022-12-29T18:05:44.447Z,91.86
2022-12-29T18:08:12.534Z,91.28
2022-12-29T18:10:40.338Z,90.90
2022-12-29T18:13:09.338Z,89.95
2022-12-29T18:15:37.627Z,90.12
2022-12-29T18:18:14.138Z,89.27
2022-12-29T18:20:43.087Z,89.65
2022-12-29T18:23:22.024Z,89.27
2022-12-29T18:26:04.521Z,91.10
2022-12-29T18:28:31.721Z,90.66
2022-12-29T18:31:01.434Z,92.21
2022-12-29T18:33:29.851Z,92.30
2022-12-29T18:36:04.735Z,92.92
2022-12-29T18:38:32.190Z,92.66
2022-12-29T18:40:59.738Z,91.73
2022-12-29T18:43:26.966Z,91.57
2022-12-29T18:45:54.128Z,92.04
2022-12-29T18:48:21.733Z,92.77
2022-12-29T18:50:53.291Z,93.30
2022-12-29T18:53:23.516Z,92.08
2022-12-29T18:55:51.637Z,91.09
2022-12-29T18:58:19.146Z,92.25
2022-12-29T19:00:46.896Z,93.29
2022-12-29T19:03:16.408Z,94.04
2022-12-29T19:05:44.913Z,93.46
2022-12-29T19:08:12.746Z,94.28
2022-12-29T19:10:40.709Z,95.05
2022-12-29T19:13:10.034Z,95.61
2022-12-29T19:15:40.071Z,94.65
2022-12-29T19:18:43.069Z,96.51
2022-12-29T19:20:58.152Z,96.23
2022-12-29T19:23:26.701Z,95.96
2022-12-29T19:25:55.308Z,96.97
2022-12-29T19:28:25.172Z,96.73
2022-12-29T19:30:57.003Z,96.59
2022-12-29T19:33:24.923Z,95.99
2022-12-29T19:35:52.994Z,94.87
2022-12-29T19:38:20.665Z,93.76
2022-12-29T19:40:50.538Z,94.00
2022-12-29T19:43:18.717Z,94.92
2022-12-29T19:45:46.376Z,95.51
2022-12-29T19:48:20.179Z,95.21
2022-12-29T19:50:47.556Z,95.53
2022-12-29T19:53:15.020Z,94.56
2022-12-29T19:55:44.013Z,93.33
2022-12-29T19:58:11.666Z,93.25
2022-12-29T20:00:40.618Z,93.89
2022-12-29T20:03:08.064Z,93.08
2022-12-29T20:05:35.529Z,94.09
2022-12-29T20:08:03.072Z,95.00
2022-12-29T20:10:30.247Z,94.57
2022-12-29T20:12:57.548Z,94.57
2022-12-29T20:15:25.096Z,94.80
2022-12-29T20:20:39.548Z,93.98
2022-12-29T20:23:06.754Z,93.46
2022-12-29T20:25:44.862Z,93.19
2022-12-29T20:28:13.384Z,91.85
2022-12-29T20:30:40.768Z,92.41
2022-12-29T20:33:08.906Z,92.18
2022-12-29T20:35:36.809Z,91.62
2022-12-29T20:38:04.666Z,91.83
2022-12-29T20:40:32.564Z,91.76
2022-12-29T20:42:59.761Z,91.61
2022-12-29T20:45:27.002Z,91.21
2022-12-29T20:47:54.753Z,92.93
2022-12-29T20:50:22.059Z,92.66
2022-12-29T20:52:49.283Z,92.50
2022-12-29T20:55:16.614Z,92.77
2022-12-29T20:58:21.986Z,93.38
2022-12-29T21:00:32.716Z,93.12
2022-12-29T21:03:01.048Z,93.38
2022-12-29T21:05:29.494Z,93.83
2022-12-29T21:07:59.571Z,94.20
2022-12-29T21:10:26.858Z,94.72
2022-12-29T21:12:54.081Z,93.38
2022-12-29T21:15:21.862Z,93.23
2022-12-29T21:17:49.283Z,92.23
2022-12-29T21:20:20.048Z,93.02
2022-12-29T21:22:50.353Z,92.03
2022-12-29T21:25:17.885Z,93.66
2022-12-29T21:27:45.115Z,93.88
2022-12-29T21:30:13.266Z,93.55
2022-12-29T21:32:41.541Z,93.80
2022-12-29T21:35:09.556Z,94.88
2022-12-29T21:37:37.417Z,93.97
2022-12-29T21:40:05.932Z,93.68
2022-12-29T21:42:33.138Z,93.44
2022-12-29T21:45:21.094Z,94.36
2022-12-29T21:48:07.649Z,94.79
2022-12-29T21:51:01.243Z,94.07
2022-12-29T21:53:40.554Z,92.23
2022-12-29T21:56:09.479Z,91.05
2022-12-29T21:58:56.859Z,92.97
2022-12-29T22:01:43.553Z,92.65
2022-12-29T22:04:34.484Z,92.57
2022-12-29T22:07:21.852Z,92.49
2022-12-29T22:10:08.072Z,91.60
2022-12-29T22:12:54.135Z,90.61
2022-12-29T22:15:21.407Z,91.70
2022-12-29T22:17:53.975Z,93.42
2022-12-29T22:20:23.829Z,94.00
2022-12-29T22:22:51.116Z,93.30
2022-12-29T22:25:18.416Z,94.29
2022-12-29T22:27:45.651Z,94.14
2022-12-29T22:30:13.622Z,92.27
2022-12-29T22:32:40.966Z,92.66
2022-12-29T22:35:10.130Z,93.16
2022-12-29T22:37:39.633Z,93.47
2022-12-29T22:40:09.702Z,94.55
2022-12-29T22:42:37.253Z,93.24
2022-12-29T22:45:04.952Z,92.08
2022-12-29T22:47:32.169Z,92.28
2022-12-29T22:50:00.380Z,92.27
2022-12-29T22:52:27.612Z,91.96
2022-12-29T22:54:54.847Z,89.80
2022-12-29T22:57:22.023Z,89.68
2022-12-29T22:59:49.245Z,88.72
2022-12-29T23:02:17.003Z,88.32
2022-12-29T23:05:02.905Z,89.11
2022-12-29T23:07:31.601Z,88.62
2022-12-29T23:09:58.992Z,87.84
2022-12-29T23:12:28.800Z,89.32
2022-12-29T23:14:56.306Z,88.81
2022-12-29T23:17:25.081Z,87.50
2022-12-29T23:19:52.367Z,88.61
2022-12-29T23:22:19.880Z,88.64
2022-12-29T23:24:47.090Z,88.48
2022-12-29T23:27:14.302Z,89.21
2022-12-29T23:29:41.560Z,89.17
2022-12-29T23:32:08.818Z,89.19
2022-12-29T23:34:36.053Z,87.88
2022-12-29T23:37:03.274Z,88.64
2022-12-29T23:39:30.694Z,87.27
2022-12-29T23:41:58.111Z,87.86
2022-12-29T23:44:25.317Z,88.36
2022-12-29T23:46:52.790Z,89.04
2022-12-29T23:49:20.077Z,87.91
2022-12-29T23:51:47.298Z,88.56
2022-12-29T23:54:14.806Z,88.70
2022-12-29T23:56:42.032Z,86.87
2022-12-29T23:59:09.215Z,86.26
